Daniel Ciechański     KTS Weszło Warszawa
ImięDaniel
NazwiskoCiechański
Kraj Polska
Data urodzenia26 lutego 1995 (27 lat)
Miejsce urodzenia Warszawa
Wzrost / waga182 cm / 74 kg
Obecny klubKTS Weszło Warszawa
Fot: KTS WeszłoPozycjanapastnikKTS Weszło Warszawa

Występy:  2013/14  2014/15  2015/16  2016/17  2017/18  2018/19 

Kariera

Sezon 2017/18

data rozgrywki gospodarze wynik goście nr grał kartki akcje
2017-08-06 11:15III liga, Kolejka 1 Pelikan Łowicz 0-1 Ursus Warszawa 1086-90
2017-08-13 11:00III liga, Kolejka 2 Finishparkiet Drwęca Nowe Miasto Lubawskie 3-1 Pelikan Łowicz 101-9022 
2017-08-20 11:15III liga, Kolejka 3 Pelikan Łowicz 6-1 Tur Bielsk Podlaski 101-56
2017-08-23 17:00III liga, Kolejka 4 GKS Wikielec 0-2 Pelikan Łowicz 101-89
2017-08-27 11:15III liga, Kolejka 5 Pelikan Łowicz 2-3 Sokół Aleksandrów Łódzki 1078-90
2017-09-03 11:15III liga, Kolejka 6 Pelikan Łowicz 3-2 Polonia Warszawa 1077-90
2017-09-09 16:00III liga, Kolejka 7 ŁKS 1926 Łomża 3-2 Pelikan Łowicz 1080-90
2017-09-16 16:30III liga, Kolejka 8 Pelikan Łowicz 4-1 Lechia Tomaszów Mazowiecki 1089-90
2017-09-23 18:00III liga, Kolejka 9 Sokół Ostróda 2-1 Pelikan Łowicz 101-62
2017-10-06 19:00III liga, Kolejka 11 Świt Nowy Dwór Mazowiecki 4-1 Pelikan Łowicz 2280-90
2017-10-21 18:00III liga, Kolejka 13 Widzew Łódź 2-1 Pelikan Łowicz 1077-90
2017-11-05 12:00III liga, Kolejka 15 Legia II Warszawa 2-0 Pelikan Łowicz 101-71
2018-03-18 15:00III liga, Kolejka 19 Świt Skolwin (Szczecin) 2-1 Elana Toruń 211-7034 
2018-03-24 15:00III liga, Kolejka 20 Elana Toruń 2-0 Sokół Kleczew 211-57
2018-04-08 16:00III liga, Kolejka 22 Elana Toruń 2-0 Polonia Środa Wielkopolska 2172-90
2018-04-22 16:00III liga, Kolejka 24 Elana Toruń 2-0 KKS 1925 Kalisz 2182-90
2018-04-28 12:00III liga, Kolejka 25 Lech II Poznań 1-1 Elana Toruń 2166-9083 
2018-05-01 15:00III liga, Kolejka 26 Elana Toruń 6-0 GKS Przodkowo 211-7127  , 55 
2018-05-05 17:00III liga, Kolejka 27 Elana Toruń 4-1 Pogoń II Szczecin 211-7445  , 61 
2018-05-20 17:00III liga, Kolejka 29 Elana Toruń 2-0 Górnik Konin 211-70
2018-05-26 17:00III liga, Kolejka 30 Wda Świecie 0-3 Elana Toruń 211-6844 
2018-05-31 17:00III liga, Kolejka 31 Elana Toruń 6-1 Centra Ostrów Wielkopolski 211-45
2018-06-09 16:00III liga, Kolejka 33 Elana Toruń 0-3 KP Starogard Gdański 211-58
2018-06-16 16:00III liga, Kolejka 34 Unia Solec Kujawski 1-5 Elana Toruń 211-10

drużyna rozgr. występy w "11" pełne rez. czas gry   karne sam. ŻK CK 
Pelikan ŁowiczIII liga1251743810 (0 + 0)000
Pelikan ŁowiczRAZEM1251743810 (0 + 0)000
Elana ToruńIII liga1290357670 (0 + 0)000
Elana ToruńRAZEM1290357670 (0 + 0)000
RAZEM2414110101480 (0 + 0)000